Time;durP1;ratioP1;P1;durP2;ratioP2;P2;SDS_P1;SDS_P2;PMS_P1;PMS_P2;Temp;Humidity;BMP_temperature;BMP_pressure;BME280_temperature;BME280_humidity;BME280_pressure;Samples;Min_cycle;Max_cycle;Signal;HPM_P1;HPM_P2
2022/10/19 00:01:23;;;;;;;1.70;1.60;;;;;;;;;;5114946;28;20359;-64
2022/10/19 00:03:50;;;;;;;1.83;1.73;;;;;;;;;;5113684;28;20047;-64
2022/10/19 00:06:16;;;;;;;1.95;1.63;;;;;;;;;;5115257;28;20073;-64
2022/10/19 00:08:42;;;;;;;2.83;1.58;;;;;;;;;;5114097;28;20409;-64
2022/10/19 00:11:07;;;;;;;1.80;1.70;;;;;;;;;;5115093;27;20038;-64
2022/10/19 00:13:33;;;;;;;1.67;1.58;;;;;;;;;;5115173;28;20019;-64
2022/10/19 00:15:58;;;;;;;1.88;1.77;;;;;;;;;;5115056;28;20015;-64
2022/10/19 00:18:23;;;;;;;2.20;2.00;;;;;;;;;;5113203;28;20490;-64
2022/10/19 00:20:48;;;;;;;1.77;1.67;;;;;;;;;;5114469;28;20073;-64
2022/10/19 00:23:14;;;;;;;2.30;1.58;;;;;;;;;;5113137;28;20031;-64
2022/10/19 00:25:39;;;;;;;1.73;1.63;;;;;;;;;;5114707;28;20424;-64
2022/10/19 00:28:05;;;;;;;1.85;1.75;;;;;;;;;;5114325;28;20546;-64
2022/10/19 00:30:30;;;;;;;1.70;1.60;;;;;;;;;;5113456;28;20045;-64
2022/10/19 00:32:55;;;;;;;1.73;1.63;;;;;;;;;;5114236;28;20030;-64
2022/10/19 00:35:21;;;;;;;1.77;1.63;;;;;;;;;;5114539;28;20030;-64
2022/10/19 00:37:46;;;;;;;1.98;1.73;;;;;;;;;;5114480;28;20019;-64
2022/10/19 00:40:12;;;;;;;1.83;1.73;;;;;;;;;;5114088;28;20058;-64
2022/10/19 00:42:37;;;;;;;1.92;1.83;;;;;;;;;;5114285;28;20024;-64
2022/10/19 00:45:05;;;;;;;1.85;1.75;;;;;;;;;;5113585;28;20408;-64
2022/10/19 00:47:30;;;;;;;1.63;1.52;;;;;;;;;;5114692;28;20035;-64
2022/10/19 00:49:56;;;;;;;1.70;1.60;;;;;;;;;;5114348;28;20019;-64
2022/10/19 00:52:23;;;;;;;1.80;1.70;;;;;;;;;;5114353;28;20469;-64
2022/10/19 00:54:49;;;;;;;3.28;1.70;;;;;;;;;;5114653;28;20038;-64
2022/10/19 00:57:15;;;;;;;1.95;1.85;;;;;;;;;;5114491;28;20040;-64
2022/10/19 00:59:41;;;;;;;2.13;1.75;;;;;;;;;;5114507;28;20023;-65
2022/10/19 01:02:07;;;;;;;2.20;2.10;;;;;;;;;;5113119;28;20057;-65
2022/10/19 01:04:34;;;;;;;2.00;1.90;;;;;;;;;;5113902;28;20039;-65
2022/10/19 01:07:01;;;;;;;2.45;2.25;;;;;;;;;;5114186;28;20024;-65
2022/10/19 01:09:26;;;;;;;2.47;2.30;;;;;;;;;;5112333;28;20466;-65
2022/10/19 01:11:55;;;;;;;2.58;2.38;;;;;;;;;;5114344;28;20027;-65
2022/10/19 01:14:44;;;;;;;2.67;2.55;;;;;;;;;;5113859;28;20387;-65
2022/10/19 01:17:10;;;;;;;3.05;2.85;;;;;;;;;;5107332;28;20089;-65
2022/10/19 01:19:42;;;;;;;2.88;2.70;;;;;;;;;;5112554;28;20382;-65
2022/10/19 01:22:10;;;;;;;3.20;2.90;;;;;;;;;;5113883;28;20031;-65
2022/10/19 01:24:50;;;;;;;3.15;2.95;;;;;;;;;;5113926;28;20020;-65
2022/10/19 01:27:18;;;;;;;3.03;2.83;;;;;;;;;;5113971;28;20035;-65
2022/10/19 01:30:02;;;;;;;4.38;2.88;;;;;;;;;;5113999;28;20031;-64
2022/10/19 01:32:37;;;;;;;3.13;2.92;;;;;;;;;;5114368;28;20443;-63
2022/10/19 01:35:10;;;;;;;3.10;2.90;;;;;;;;;;5113195;28;20023;-64
2022/10/19 01:37:35;;;;;;;2.83;2.65;;;;;;;;;;5113945;28;20027;-64
2022/10/19 01:40:06;;;;;;;3.72;3.42;;;;;;;;;;5113870;28;20018;-64
2022/10/19 01:42:32;;;;;;;3.35;3.10;;;;;;;;;;5113967;28;20036;-64
2022/10/19 01:45:02;;;;;;;2.70;2.60;;;;;;;;;;5112760;28;20026;-64
2022/10/19 01:47:54;;;;;;;2.58;2.45;;;;;;;;;;5114303;28;20036;-64
2022/10/19 01:50:19;;;;;;;2.88;2.72;;;;;;;;;;5112174;28;20035;-64
2022/10/19 01:52:45;;;;;;;2.45;2.35;;;;;;;;;;5115557;28;20481;-64
2022/10/19 01:55:12;;;;;;;2.88;2.67;;;;;;;;;;5116252;28;20038;-64
2022/10/19 01:57:44;;;;;;;2.63;2.53;;;;;;;;;;5117452;28;20020;-64
2022/10/19 02:00:11;;;;;;;2.78;2.63;;;;;;;;;;5117625;28;20077;-64
2022/10/19 02:02:39;;;;;;;2.58;2.40;;;;;;;;;;5116561;28;20051;-63
2022/10/19 02:05:06;;;;;;;2.65;2.45;;;;;;;;;;5117183;28;20048;-64
2022/10/19 02:07:32;;;;;;;2.42;2.33;;;;;;;;;;5117202;28;20042;-63
2022/10/19 02:09:57;;;;;;;2.28;2.17;;;;;;;;;;5117513;28;20378;-63
2022/10/19 02:12:23;;;;;;;2.60;2.40;;;;;;;;;;5115910;28;20110;-64
2022/10/19 02:14:52;;;;;;;2.20;1.92;;;;;;;;;;5115647;28;20455;-65
2022/10/19 02:17:22;;;;;;;2.83;2.15;;;;;;;;;;5117072;28;20068;-65
2022/10/19 02:19:48;;;;;;;2.13;2.03;;;;;;;;;;5117373;28;20439;-64
2022/10/19 02:22:13;;;;;;;2.55;2.42;;;;;;;;;;5116844;28;20026;-64
2022/10/19 02:24:39;;;;;;;2.05;1.95;;;;;;;;;;5117214;28;20043;-64
2022/10/19 02:27:05;;;;;;;2.67;2.42;;;;;;;;;;5116551;28;20026;-64
2022/10/19 02:29:32;;;;;;;2.38;2.17;;;;;;;;;;5116554;28;20031;-65
2022/10/19 02:31:57;;;;;;;2.40;2.20;;;;;;;;;;5116675;28;20034;-65
2022/10/19 02:34:23;;;;;;;2.50;2.40;;;;;;;;;;5116736;28;20027;-65
2022/10/19 02:36:48;;;;;;;2.47;2.03;;;;;;;;;;5116753;28;20072;-65
2022/10/19 02:39:14;;;;;;;2.60;2.40;;;;;;;;;;5116796;28;20069;-64
2022/10/19 02:42:00;;;;;;;2.63;2.42;;;;;;;;;;5115764;28;20063;-64
2022/10/19 02:44:28;;;;;;;2.45;2.35;;;;;;;;;;5116626;28;20039;-64
2022/10/19 02:47:14;;;;;;;2.75;2.55;;;;;;;;;;5116611;28;20023;-65
2022/10/19 02:49:40;;;;;;;2.42;2.30;;;;;;;;;;5115886;28;20130;-64
2022/10/19 02:52:07;;;;;;;2.33;2.22;;;;;;;;;;5116034;28;20024;-64
2022/10/19 02:54:33;;;;;;;2.72;2.53;;;;;;;;;;5114885;28;20431;-65
2022/10/19 02:57:01;;;;;;;2.75;2.55;;;;;;;;;;5116387;28;20043;-65
2022/10/19 02:59:27;;;;;;;2.80;2.70;;;;;;;;;;5115948;28;20024;-65
2022/10/19 03:01:53;;;;;;;2.65;2.45;;;;;;;;;;5115895;28;20076;-65
2022/10/19 03:04:18;;;;;;;3.80;2.40;;;;;;;;;;5115460;28;20080;-65
2022/10/19 03:06:43;;;;;;;2.35;2.25;;;;;;;;;;5116268;28;20032;-65
2022/10/19 03:09:09;;;;;;;2.20;2.10;;;;;;;;;;5116425;28;20032;-65
2022/10/19 03:11:35;;;;;;;2.50;2.40;;;;;;;;;;5115989;28;20023;-65
2022/10/19 03:14:00;;;;;;;2.40;2.30;;;;;;;;;;5115692;28;20053;-65
2022/10/19 03:16:25;;;;;;;3.47;3.17;;;;;;;;;;5115666;28;20015;-65
2022/10/19 03:18:51;;;;;;;2.65;2.35;;;;;;;;;;5116056;28;20053;-65
2022/10/19 03:21:17;;;;;;;2.65;2.47;;;;;;;;;;5116112;28;20469;-64
2022/10/19 03:23:43;;;;;;;2.95;2.42;;;;;;;;;;5115506;28;20038;-64
2022/10/19 03:26:11;;;;;;;3.85;3.00;;;;;;;;;;5116019;28;20020;-64
2022/10/19 03:28:36;;;;;;;3.10;2.55;;;;;;;;;;5115374;28;20081;-64
2022/10/19 03:31:01;;;;;;;4.35;2.88;;;;;;;;;;5115714;28;20023;-64
2022/10/19 03:33:27;;;;;;;4.20;3.90;;;;;;;;;;5115601;28;20051;-64
2022/10/19 03:36:11;;;;;;;3.00;2.80;;;;;;;;;;5115797;28;20412;-64
2022/10/19 03:38:36;;;;;;;3.25;2.97;;;;;;;;;;5115463;28;20032;-65
2022/10/19 03:41:04;;;;;;;3.97;3.13;;;;;;;;;;5114213;28;20023;-64
2022/10/19 03:43:30;;;;;;;5.10;3.15;;;;;;;;;;5115704;28;20114;-64
2022/10/19 03:45:55;;;;;;;3.25;2.95;;;;;;;;;;5114787;28;20106;-64
2022/10/19 03:48:20;;;;;;;3.65;3.42;;;;;;;;;;5113921;28;20032;-64
2022/10/19 03:50:45;;;;;;;3.50;3.20;;;;;;;;;;5115281;28;20024;-65
2022/10/19 03:53:11;;;;;;;3.15;2.90;;;;;;;;;;5115323;28;20024;-64
2022/10/19 03:55:36;;;;;;;4.10;3.72;;;;;;;;;;5115177;28;20016;-64
2022/10/19 03:58:02;;;;;;;6.18;4.80;;;;;;;;;;5115059;28;20149;-64
2022/10/19 04:00:27;;;;;;;5.78;4.43;;;;;;;;;;5115543;28;20443;-63
2022/10/19 04:02:52;;;;;;;5.35;4.75;;;;;;;;;;5113508;28;20028;-64
2022/10/19 04:05:18;;;;;;;4.90;4.60;;;;;;;;;;5112083;28;20050;-64
2022/10/19 04:07:43;;;;;;;7.72;5.60;;;;;;;;;;5114226;28;20408;-64
2022/10/19 04:10:08;;;;;;;6.00;4.85;;;;;;;;;;5114405;28;20526;-64
2022/10/19 04:12:34;;;;;;;5.53;5.03;;;;;;;;;;5113687;28;20042;-63
2022/10/19 04:14:59;;;;;;;5.63;5.00;;;;;;;;;;5113445;28;20024;-63
2022/10/19 04:17:25;;;;;;;8.05;5.88;;;;;;;;;;5111483;28;20027;-63
2022/10/19 04:19:50;;;;;;;5.93;5.30;;;;;;;;;;5113568;28;20394;-63
2022/10/19 04:22:16;;;;;;;6.07;5.47;;;;;;;;;;5114128;28;20035;-63
2022/10/19 04:24:41;;;;;;;9.75;5.95;;;;;;;;;;5114086;28;20032;-63
2022/10/19 04:27:06;;;;;;;8.30;6.22;;;;;;;;;;5114187;28;20067;-63
2022/10/19 04:29:32;;;;;;;8.73;6.82;;;;;;;;;;5112808;28;20019;-63
2022/10/19 04:31:58;;;;;;;8.75;6.15;;;;;;;;;;5113230;28;20028;-63
2022/10/19 04:34:23;;;;;;;6.20;5.60;;;;;;;;;;5114099;28;20020;-63
2022/10/19 04:36:48;;;;;;;5.78;5.20;;;;;;;;;;5112460;28;20386;-63
2022/10/19 04:39:14;;;;;;;6.30;5.47;;;;;;;;;;5111955;28;20554;-63
2022/10/19 04:41:39;;;;;;;4.85;4.45;;;;;;;;;;5111883;28;20028;-63
2022/10/19 04:44:07;;;;;;;5.93;5.30;;;;;;;;;;5111105;28;20463;-63
2022/10/19 04:46:33;;;;;;;5.50;5.00;;;;;;;;;;5111258;28;20027;-63
2022/10/19 04:48:59;;;;;;;5.45;4.95;;;;;;;;;;5111100;28;20024;-63
2022/10/19 04:51:25;;;;;;;5.57;5.07;;;;;;;;;;5111186;28;20035;-63
2022/10/19 04:53:50;;;;;;;6.40;5.00;;;;;;;;;;5110882;28;20371;-63
2022/10/19 04:56:18;;;;;;;5.05;4.60;;;;;;;;;;5111602;28;20032;-66
2022/10/19 04:58:43;;;;;;;5.18;4.80;;;;;;;;;;5094708;28;20019;-66
2022/10/19 05:01:14;;;;;;;5.35;4.95;;;;;;;;;;5112953;28;20547;-66
2022/10/19 05:03:40;;;;;;;8.57;5.07;;;;;;;;;;5112840;28;20070;-67
2022/10/19 05:06:06;;;;;;;5.53;5.00;;;;;;;;;;5111677;28;20471;-66
2022/10/19 05:08:31;;;;;;;4.78;4.35;;;;;;;;;;5112609;28;20027;-66
2022/10/19 05:11:15;;;;;;;5.50;5.07;;;;;;;;;;5112487;28;20051;-66
2022/10/19 05:13:40;;;;;;;5.68;4.63;;;;;;;;;;5111318;28;20084;-66
2022/10/19 05:16:07;;;;;;;8.32;4.80;;;;;;;;;;5112719;28;20019;-66
2022/10/19 05:18:33;;;;;;;5.07;4.68;;;;;;;;;;5112347;28;20020;-66
2022/10/19 05:21:01;;;;;;;4.53;4.13;;;;;;;;;;5112531;28;20020;-66
2022/10/19 05:23:28;;;;;;;5.93;4.70;;;;;;;;;;5112708;28;20039;-66
2022/10/19 05:26:04;;;;;;;6.25;4.47;;;;;;;;;;5112718;28;20027;-66
2022/10/19 05:28:30;;;;;;;6.45;4.30;;;;;;;;;;5116221;28;20023;-66
2022/10/19 05:31:03;;;;;;;4.72;4.40;;;;;;;;;;5116785;28;20343;-66
2022/10/19 05:33:29;;;;;;;4.82;4.18;;;;;;;;;;5116592;28;20040;-66
2022/10/19 05:35:54;;;;;;;4.68;4.28;;;;;;;;;;5117623;28;20020;-66
2022/10/19 05:38:19;;;;;;;6.32;4.85;;;;;;;;;;5117522;28;20024;-66
2022/10/19 05:40:45;;;;;;;5.63;4.57;;;;;;;;;;5117535;28;20016;-66
2022/10/19 05:43:10;;;;;;;5.03;4.03;;;;;;;;;;5117671;28;20036;-66
2022/10/19 05:45:36;;;;;;;5.63;4.20;;;;;;;;;;5117703;28;20023;-66
2022/10/19 05:48:01;;;;;;;4.80;4.40;;;;;;;;;;5117407;28;20031;-66
2022/10/19 05:50:26;;;;;;;4.88;4.43;;;;;;;;;;5117604;28;20099;-66
2022/10/19 05:52:52;;;;;;;4.78;3.75;;;;;;;;;;5117236;28;20035;-66
2022/10/19 05:55:17;;;;;;;4.82;4.32;;;;;;;;;;5117545;28;20035;-66
2022/10/19 05:57:42;;;;;;;4.40;4.03;;;;;;;;;;5117480;28;20081;-66
2022/10/19 06:00:09;;;;;;;4.97;4.57;;;;;;;;;;5117425;28;20027;-66
2022/10/19 06:02:37;;;;;;;4.60;4.20;;;;;;;;;;5117092;28;20070;-66
2022/10/19 06:05:02;;;;;;;5.35;4.40;;;;;;;;;;5117796;28;20040;-66
2022/10/19 06:07:27;;;;;;;6.60;4.55;;;;;;;;;;5117017;28;20031;-66
2022/10/19 06:09:53;;;;;;;5.65;4.55;;;;;;;;;;5117262;28;20031;-66
2022/10/19 06:12:19;;;;;;;5.00;4.60;;;;;;;;;;5116851;28;20031;-66
2022/10/19 06:14:44;;;;;;;5.38;4.80;;;;;;;;;;5117148;28;20022;-66
2022/10/19 06:17:09;;;;;;;5.25;4.85;;;;;;;;;;5117115;28;20023;-66
2022/10/19 06:19:35;;;;;;;5.43;4.90;;;;;;;;;;5117386;28;20024;-66
2022/10/19 06:22:00;;;;;;;6.20;4.70;;;;;;;;;;5116731;28;20028;-66
2022/10/19 06:24:26;;;;;;;5.93;5.13;;;;;;;;;;5117257;28;20459;-66
2022/10/19 06:26:51;;;;;;;6.22;5.53;;;;;;;;;;5116655;28;20368;-66
2022/10/19 06:29:16;;;;;;;6.38;5.75;;;;;;;;;;5115356;28;20031;-66
2022/10/19 06:31:42;;;;;;;6.75;6.07;;;;;;;;;;5117057;28;20080;-66
2022/10/19 06:34:07;;;;;;;6.63;5.82;;;;;;;;;;5116759;28;20019;-66
2022/10/19 06:36:34;;;;;;;6.68;5.90;;;;;;;;;;5115574;28;20028;-66
2022/10/19 06:39:00;;;;;;;7.35;5.60;;;;;;;;;;5116035;28;20020;-66
2022/10/19 06:41:26;;;;;;;7.30;6.60;;;;;;;;;;5115055;28;20475;-66
2022/10/19 06:43:52;;;;;;;8.32;6.15;;;;;;;;;;5116609;28;20022;-66
2022/10/19 06:46:22;;;;;;;6.57;5.97;;;;;;;;;;5116536;28;20455;-66
2022/10/19 06:48:50;;;;;;;7.10;4.85;;;;;;;;;;5116510;28;20023;-66
2022/10/19 06:51:16;;;;;;;6.32;5.32;;;;;;;;;;5116114;28;20455;-66
2022/10/19 06:53:41;;;;;;;7.28;6.07;;;;;;;;;;5116121;28;20035;-66
2022/10/19 06:56:06;;;;;;;6.45;5.80;;;;;;;;;;5116366;28;20019;-66
2022/10/19 06:58:35;;;;;;;5.63;4.93;;;;;;;;;;5116344;28;20028;-66
2022/10/19 07:01:01;;;;;;;7.30;5.72;;;;;;;;;;5116560;28;20455;-66
2022/10/19 07:03:28;;;;;;;10.07;6.07;;;;;;;;;;5116042;28;20053;-66
2022/10/19 07:05:58;;;;;;;9.65;6.32;;;;;;;;;;5116169;28;20024;-66
2022/10/19 07:08:24;;;;;;;8.52;6.20;;;;;;;;;;5116102;28;20042;-66
2022/10/19 07:10:57;;;;;;;8.02;6.05;;;;;;;;;;5114542;28;20023;-66
2022/10/19 07:13:23;;;;;;;6.25;5.65;;;;;;;;;;5115657;28;20102;-66
2022/10/19 07:15:48;;;;;;;5.32;4.82;;;;;;;;;;5114474;28;20529;-66
2022/10/19 07:18:14;;;;;;;7.10;4.88;;;;;;;;;;5114457;28;20111;-66
2022/10/19 07:20:40;;;;;;;5.57;4.97;;;;;;;;;;5115614;28;20098;-66
2022/10/19 07:23:05;;;;;;;9.48;5.13;;;;;;;;;;5114294;28;20039;-66
2022/10/19 07:25:30;;;;;;;7.20;4.78;;;;;;;;;;5115532;28;20489;-66
2022/10/19 07:27:56;;;;;;;6.10;5.10;;;;;;;;;;5115722;28;20036;-66
2022/10/19 07:30:21;;;;;;;5.53;4.88;;;;;;;;;;5116007;28;20069;-66
2022/10/19 07:32:47;;;;;;;7.30;5.55;;;;;;;;;;5115521;28;20035;-66
2022/10/19 07:35:13;;;;;;;6.10;4.57;;;;;;;;;;5115873;28;20039;-66
2022/10/19 07:37:38;;;;;;;5.78;5.07;;;;;;;;;;5114022;28;20039;-66
2022/10/19 07:40:04;;;;;;;7.78;5.35;;;;;;;;;;5115497;28;20016;-66
2022/10/19 07:42:29;;;;;;;5.20;4.40;;;;;;;;;;5115453;28;20096;-66
2022/10/19 07:44:54;;;;;;;5.15;4.38;;;;;;;;;;5115435;28;20058;-66
2022/10/19 07:47:20;;;;;;;5.40;4.50;;;;;;;;;;5115679;28;20107;-66
2022/10/19 07:49:45;;;;;;;5.35;4.07;;;;;;;;;;5114939;28;20015;-66
2022/10/19 07:52:10;;;;;;;5.80;4.13;;;;;;;;;;5115172;28;20153;-66
2022/10/19 07:54:36;;;;;;;7.97;4.30;;;;;;;;;;5115255;28;20061;-66
2022/10/19 07:57:01;;;;;;;6.95;4.00;;;;;;;;;;5115207;28;20023;-66
2022/10/19 07:59:26;;;;;;;5.05;3.88;;;;;;;;;;5115093;28;20022;-66
2022/10/19 08:01:53;;;;;;;5.93;4.18;;;;;;;;;;5114841;28;20038;-66
2022/10/19 08:04:18;;;;;;;4.28;3.17;;;;;;;;;;5106810;28;20048;-66
2022/10/19 08:06:44;;;;;;;12.63;4.00;;;;;;;;;;5076292;28;20054;-66
2022/10/19 08:09:09;;;;;;;5.07;4.32;;;;;;;;;;5094299;28;20042;-66
2022/10/19 08:11:35;;;;;;;5.70;3.55;;;;;;;;;;5094166;28;20036;-66
2022/10/19 08:14:03;;;;;;;6.30;3.45;;;;;;;;;;5094501;28;20023;-66
2022/10/19 08:16:36;;;;;;;3.75;3.30;;;;;;;;;;5094449;28;20020;-66
2022/10/19 08:19:08;;;;;;;4.38;3.75;;;;;;;;;;5094377;28;20036;-66
2022/10/19 08:21:35;;;;;;;4.53;3.53;;;;;;;;;;5094100;28;20460;-66
2022/10/19 08:24:00;;;;;;;3.53;3.25;;;;;;;;;;5076503;28;20016;-66
2022/10/19 08:26:29;;;;;;;2.58;2.35;;;;;;;;;;5093872;28;20039;-67
2022/10/19 08:29:01;;;;;;;6.40;2.60;;;;;;;;;;5094019;28;20020;-67
2022/10/19 08:31:27;;;;;;;4.82;2.90;;;;;;;;;;5094127;28;20103;-67
2022/10/19 08:33:52;;;;;;;4.72;2.53;;;;;;;;;;5094179;28;20099;-66
2022/10/19 08:36:21;;;;;;;4.75;2.30;;;;;;;;;;5093876;28;20078;-66
2022/10/19 08:38:47;;;;;;;2.85;2.28;;;;;;;;;;5094113;28;20448;-67
2022/10/19 08:41:31;;;;;;;4.82;3.08;;;;;;;;;;5094086;28;20043;-67
2022/10/19 08:44:22;;;;;;;18.20;7.15;;;;;;;;;;5093768;28;20056;-67
2022/10/19 08:46:47;;;;;;;4.10;3.17;;;;;;;;;;5094045;28;20036;-67
2022/10/19 08:49:17;;;;;;;3.23;2.23;;;;;;;;;;5076073;28;20115;-67
2022/10/19 08:51:45;;;;;;;2.80;1.80;;;;;;;;;;5093627;28;20329;-67
2022/10/19 08:54:14;;;;;;;6.72;2.28;;;;;;;;;;5093963;28;20051;-67
2022/10/19 08:57:00;;;;;;;3.20;2.10;;;;;;;;;;5093675;28;20414;-67
2022/10/19 08:59:30;;;;;;;8.77;3.13;;;;;;;;;;5052422;28;20048;-67
2022/10/19 09:01:56;;;;;;;;;;;;;;;;;;5095288;28;20103;-67
2022/10/19 09:04:27;;;;;;;2.05;1.50;;;;;;;;;;5097644;28;19955;-67
2022/10/19 09:06:56;;;;;;;3.08;1.67;;;;;;;;;;5079636;28;20477;-67
2022/10/19 09:09:22;;;;;;;2.58;1.60;;;;;;;;;;5098335;28;20455;-67
2022/10/19 09:11:48;;;;;;;1.63;1.52;;;;;;;;;;5097921;28;20478;-67
2022/10/19 09:14:29;;;;;;;2.83;1.52;;;;;;;;;;5097989;28;20114;-67
2022/10/19 09:16:57;;;;;;;2.70;1.58;;;;;;;;;;5079461;28;20032;-67
2022/10/19 09:19:28;;;;;;;3.15;1.77;;;;;;;;;;5097726;28;20012;-67
2022/10/19 09:21:59;;;;;;;1.70;1.60;;;;;;;;;;5097523;28;20038;-67
2022/10/19 09:24:33;;;;;;;3.88;1.63;;;;;;;;;;5098022;28;20107;-67
2022/10/19 09:27:00;;;;;;;4.22;1.92;;;;;;;;;;5097970;28;20086;-67
2022/10/19 09:29:25;;;;;;;4.15;2.25;;;;;;;;;;5097370;28;20039;-67
2022/10/19 09:31:53;;;;;;;4.30;2.13;;;;;;;;;;5079808;28;20387;-67
2022/10/19 09:34:24;;;;;;;3.03;2.20;;;;;;;;;;5097137;28;20023;-67
2022/10/19 09:36:50;;;;;;;;;;;;;;;;;;5097658;28;20360;-67
2022/10/19 09:39:16;;;;;;;3.92;1.98;;;;;;;;;;5097723;28;20422;-67
2022/10/19 09:41:53;;;;;;;4.20;1.90;;;;;;;;;;5097149;28;20032;-67
2022/10/19 09:44:18;;;;;;;3.15;2.13;;;;;;;;;;5097088;28;20028;-67
2022/10/19 09:46:51;;;;;;;1.92;1.75;;;;;;;;;;5097077;28;20352;-67
2022/10/19 09:49:35;;;;;;;7.60;4.05;;;;;;;;;;5097255;28;20032;-67
2022/10/19 09:52:00;;;;;;;4.05;2.00;;;;;;;;;;5097147;28;20028;-67
2022/10/19 09:54:36;;;;;;;2.40;1.83;;;;;;;;;;5097176;28;20022;-67
2022/10/19 09:57:02;;;;;;;2.55;1.73;;;;;;;;;;5096772;28;20024;-67
2022/10/19 09:59:29;;;;;;;3.28;1.92;;;;;;;;;;5078967;28;20046;-67
2022/10/19 10:02:15;;;;;;;1.70;1.50;;;;;;;;;;5097024;28;20578;-67
2022/10/19 10:04:44;;;;;;;3.78;1.70;;;;;;;;;;5107265;28;20119;-67
2022/10/19 10:07:14;;;;;;;3.08;1.60;;;;;;;;;;5117292;28;20039;-67
2022/10/19 10:09:41;;;;;;;1.75;1.63;;;;;;;;;;5117264;28;20119;-67
2022/10/19 10:12:07;;;;;;;1.70;1.60;;;;;;;;;;5116813;28;20019;-67
2022/10/19 10:14:34;;;;;;;1.70;1.48;;;;;;;;;;5115794;28;20059;-67
2022/10/19 10:17:02;;;;;;;2.88;1.48;;;;;;;;;;5116428;28;20106;-67
2022/10/19 10:19:28;;;;;;;3.70;1.50;;;;;;;;;;5116821;28;20475;-67
2022/10/19 10:21:56;;;;;;;2.08;1.30;;;;;;;;;;5115792;28;20038;-67
2022/10/19 10:24:45;;;;;;;1.55;1.45;;;;;;;;;;5116621;28;20035;-67
2022/10/19 10:27:23;;;;;;;3.92;1.90;;;;;;;;;;5116640;28;20103;-67
2022/10/19 10:29:53;;;;;;;2.05;1.77;;;;;;;;;;5116555;28;20036;-67
2022/10/19 10:32:19;;;;;;;2.83;1.83;;;;;;;;;;5117047;28;20038;-67
2022/10/19 10:34:55;;;;;;;4.20;2.20;;;;;;;;;;5115573;28;20012;-67
2022/10/19 10:37:21;;;;;;;5.85;2.63;;;;;;;;;;5116708;28;20031;-67
2022/10/19 10:39:49;;;;;;;2.70;1.57;;;;;;;;;;5116761;28;20020;-67
2022/10/19 10:42:17;;;;;;;2.03;1.67;;;;;;;;;;5116200;28;20277;-67
2022/10/19 10:44:46;;;;;;;2.35;1.80;;;;;;;;;;5116594;28;20033;-67
2022/10/19 10:47:13;;;;;;;2.67;1.45;;;;;;;;;;5116494;28;20046;-67
2022/10/19 10:49:52;;;;;;;3.58;1.88;;;;;;;;;;5116198;28;20045;-67
2022/10/19 10:52:18;;;;;;;3.38;1.88;;;;;;;;;;5116360;28;20534;-67
2022/10/19 10:55:06;;;;;;;3.72;1.90;;;;;;;;;;5114811;28;20106;-67
2022/10/19 10:57:37;;;;;;;4.00;2.08;;;;;;;;;;5114116;28;20113;-67
2022/10/19 11:00:04;;;;;;;4.35;2.08;;;;;;;;;;5116020;28;20035;-67
2022/10/19 11:02:33;;;;;;;1.98;1.58;;;;;;;;;;5116271;28;20028;-67
2022/10/19 11:05:06;;;;;;;3.15;1.65;;;;;;;;;;5115884;28;20447;-67
2022/10/19 11:07:32;;;;;;;2.30;1.73;;;;;;;;;;5115989;28;20028;-69
2022/10/19 11:09:58;;;;;;;4.20;1.88;;;;;;;;;;5116428;28;20019;-69
2022/10/19 11:12:32;;;;;;;2.65;1.70;;;;;;;;;;5115645;28;20031;-69
2022/10/19 11:15:19;;;;;;;2.38;1.70;;;;;;;;;;5115387;28;20028;-69
2022/10/19 11:18:03;;;;;;;1.80;1.60;;;;;;;;;;5115883;28;20073;-69
2022/10/19 11:20:30;;;;;;;2.20;1.40;;;;;;;;;;5115775;28;20448;-67
2022/10/19 11:23:00;;;;;;;3.88;1.73;;;;;;;;;;5115605;28;20458;-67
2022/10/19 11:25:31;;;;;;;2.17;1.67;;;;;;;;;;5114953;28;20027;-67
2022/10/19 11:28:02;;;;;;;2.47;1.63;;;;;;;;;;5115009;28;20125;-67
2022/10/19 11:30:31;;;;;;;2.35;2.00;;;;;;;;;;5114593;28;20421;-67
2022/10/19 11:33:05;;;;;;;2.53;1.77;;;;;;;;;;5115198;28;20103;-67
2022/10/19 11:35:43;;;;;;;1.95;1.42;;;;;;;;;;5115051;28;20455;-67
2022/10/19 11:38:27;;;;;;;3.97;1.48;;;;;;;;;;5115096;28;20028;-66
2022/10/19 11:41:05;;;;;;;2.42;1.50;;;;;;;;;;5116139;22;20056;-66
2022/10/19 11:43:41;;;;;;;2.35;1.35;;;;;;;;;;5101432;22;20079;-67
2022/10/19 11:46:16;;;;;;;1.50;1.40;;;;;;;;;;5077311;22;20055;-66
2022/10/19 11:48:53;;;;;;;1.90;1.23;;;;;;;;;;5102493;22;20060;-67
2022/10/19 11:51:18;;;;;;;2.00;1.35;;;;;;;;;;5109084;22;20060;-67
2022/10/19 11:54:03;;;;;;;1.75;1.50;;;;;;;;;;5106223;22;20397;-66
2022/10/19 11:56:29;;;;;;;1.45;1.35;;;;;;;;;;5105449;22;21229;-66
2022/10/19 11:59:08;;;;;;;2.33;1.38;;;;;;;;;;5101726;22;20024;-67
2022/10/19 12:05:23;;;;;;;2.10;1.40;;;;;;;;;;5087438;22;20052;-67
2022/10/19 12:15:22;;;;;;;;;;;;;;;;;;5071958;22;20045;-67
2022/10/19 12:17:49;;;;;;;1.60;1.10;;;;;;;;;;5073245;28;19912;-67
2022/10/19 12:20:19;;;;;;;0.80;0.80;;;;;;;;;;5073622;28;20020;-67
2022/10/19 12:22:45;;;;;;;1.58;0.98;;;;;;;;;;5072578;28;20107;-67
2022/10/19 12:25:12;;;;;;;1.40;1.20;;;;;;;;;;5072262;28;20112;-67
2022/10/19 12:27:38;;;;;;;1.27;1.17;;;;;;;;;;5074064;28;20036;-67
2022/10/19 12:30:07;;;;;;;1.65;1.10;;;;;;;;;;5072552;28;20365;-67
2022/10/19 12:32:38;;;;;;;0.98;0.90;;;;;;;;;;5055621;28;20106;-67
2022/10/19 12:35:24;;;;;;;2.25;0.88;;;;;;;;;;5073693;28;20029;-67
2022/10/19 12:37:56;;;;;;;1.42;1.30;;;;;;;;;;5072994;28;20104;-67
2022/10/19 12:40:27;;;;;;;4.65;1.30;;;;;;;;;;5073606;28;20032;-67
2022/10/19 12:43:01;;;;;;;2.00;1.00;;;;;;;;;;5073286;28;20468;-67
2022/10/19 12:45:26;;;;;;;1.25;1.15;;;;;;;;;;5073322;28;20480;-67
2022/10/19 12:48:06;;;;;;;1.02;0.98;;;;;;;;;;5073495;28;20025;-67
2022/10/19 12:50:32;;;;;;;;;;;;;;;;;;5074154;28;20487;-67
2022/10/19 12:52:57;;;;;;;1.77;1.13;;;;;;;;;;5050202;28;19916;-67
2022/10/19 12:55:25;;;;;;;2.08;1.05;;;;;;;;;;5060092;28;20156;-67
2022/10/19 12:58:16;;;;;;;1.50;1.10;;;;;;;;;;5054487;28;20020;-67
2022/10/19 13:00:57;;;;;;;1.17;1.02;;;;;;;;;;5068294;28;20445;-67
2022/10/19 13:03:24;;;;;;;1.38;0.90;;;;;;;;;;5073030;28;20040;-67
2022/10/19 13:05:57;;;;;;;2.35;1.20;;;;;;;;;;5072900;28;20483;-67
2022/10/19 13:08:27;;;;;;;1.40;1.30;;;;;;;;;;5054021;28;20113;-68
2022/10/19 13:11:06;;;;;;;1.95;1.40;;;;;;;;;;5071811;28;20549;-67
2022/10/19 13:13:51;;;;;;;1.58;1.20;;;;;;;;;;5072294;28;20487;-68
2022/10/19 13:16:28;;;;;;;2.13;1.27;;;;;;;;;;5091929;28;20395;-67
2022/10/19 13:19:03;;;;;;;1.42;1.02;;;;;;;;;;5092115;28;20056;-67
2022/10/19 13:21:45;;;;;;;2.65;1.10;;;;;;;;;;5074234;28;20118;-67
2022/10/19 13:24:23;;;;;;;1.20;0.93;;;;;;;;;;5091622;28;20020;-67
2022/10/19 13:27:00;;;;;;;2.95;1.30;;;;;;;;;;5092187;28;20055;-67
2022/10/19 13:29:27;;;;;;;2.13;1.30;;;;;;;;;;5092080;28;20034;-67
2022/10/19 13:31:52;;;;;;;4.47;1.30;;;;;;;;;;5091802;28;20062;-67
2022/10/19 13:34:18;;;;;;;2.95;1.30;;;;;;;;;;5092200;28;20036;-67
2022/10/19 13:36:58;;;;;;;2.20;1.13;;;;;;;;;;5091859;28;20065;-67
2022/10/19 13:39:26;;;;;;;1.85;1.08;;;;;;;;;;5091441;28;20024;-67
2022/10/19 13:41:52;;;;;;;1.30;1.00;;;;;;;;;;5092268;28;20095;-67
2022/10/19 13:44:19;;;;;;;1.77;1.35;;;;;;;;;;5091408;28;20063;-67
2022/10/19 13:46:51;;;;;;;1.60;1.50;;;;;;;;;;5090935;28;20154;-67
2022/10/19 13:49:16;;;;;;;1.55;1.05;;;;;;;;;;5094413;28;20046;-67
2022/10/19 13:51:47;;;;;;;1.67;1.20;;;;;;;;;;5094853;28;20024;-67
2022/10/19 13:54:21;;;;;;;3.05;1.17;;;;;;;;;;5094439;28;20115;-67
2022/10/19 13:56:57;;;;;;;1.98;1.10;;;;;;;;;;5096176;28;20024;-67
2022/10/19 13:59:41;;;;;;;2.65;1.30;;;;;;;;;;5095289;28;20028;-67
2022/10/19 14:02:23;;;;;;;1.92;1.08;;;;;;;;;;5094474;28;20077;-67
2022/10/19 14:05:01;;;;;;;1.63;1.20;;;;;;;;;;5093067;28;20035;-67
2022/10/19 14:07:34;;;;;;;2.20;1.20;;;;;;;;;;5094367;28;20059;-67
2022/10/19 14:09:59;;;;;;;2.08;1.30;;;;;;;;;;5094253;28;20035;-73
2022/10/19 14:12:28;;;;;;;1.48;1.08;;;;;;;;;;5095232;28;20020;-67
2022/10/19 14:14:53;;;;;;;2.28;1.30;;;;;;;;;;5094961;28;20040;-67
2022/10/19 14:17:24;;;;;;;1.92;1.05;;;;;;;;;;5094995;28;20393;-67
2022/10/19 14:19:54;;;;;;;2.35;1.10;;;;;;;;;;5095463;28;20118;-67
2022/10/19 14:22:32;;;;;;;1.23;1.13;;;;;;;;;;5096148;28;20493;-67
2022/10/19 14:25:01;;;;;;;1.90;0.70;;;;;;;;;;5096385;28;20034;-67
2022/10/19 14:27:26;;;;;;;0.88;0.55;;;;;;;;;;5096563;28;20020;-67
2022/10/19 14:29:54;;;;;;;1.80;1.08;;;;;;;;;;5096307;28;20039;-67
2022/10/19 14:32:22;;;;;;;1.27;0.70;;;;;;;;;;5095336;28;20039;-67
2022/10/19 14:34:47;;;;;;;1.38;0.90;;;;;;;;;;5093868;28;20090;-67
2022/10/19 14:37:17;;;;;;;0.73;0.60;;;;;;;;;;5075214;28;20017;-67
2022/10/19 14:39:55;;;;;;;3.13;0.70;;;;;;;;;;5074243;28;20029;-67
2022/10/19 14:42:21;;;;;;;0.93;0.90;;;;;;;;;;5074598;28;20475;-67
2022/10/19 14:44:46;;;;;;;1.30;0.85;;;;;;;;;;5075260;28;20023;-67
2022/10/19 14:47:21;;;;;;;1.02;0.73;;;;;;;;;;5075479;28;20400;-67
2022/10/19 14:49:47;;;;;;;2.13;0.75;;;;;;;;;;5075566;28;20040;-67
2022/10/19 14:52:21;;;;;;;1.23;1.02;;;;;;;;;;5075303;28;20422;-67
2022/10/19 14:54:50;;;;;;;1.10;1.00;;;;;;;;;;5075611;28;20036;-67
2022/10/19 14:57:18;;;;;;;1.45;1.00;;;;;;;;;;5075270;28;20051;-67
2022/10/19 14:59:48;;;;;;;1.15;0.90;;;;;;;;;;5073963;28;20032;-67
2022/10/19 15:02:19;;;;;;;1.05;0.85;;;;;;;;;;5074080;28;20115;-67
2022/10/19 15:04:46;;;;;;;1.60;1.08;;;;;;;;;;5075311;28;20057;-67